sensor_id;sensor_type;location;lat;lon;timestamp;temperature;humidity
18189;DHT22;9219;50.396;8.546;2023-01-04T00:00:16;7.30;99.90
18189;DHT22;9219;50.396;8.546;2023-01-04T00:02:47;7.60;99.90
18189;DHT22;9219;50.396;8.546;2023-01-04T00:05:29;7.30;99.90
18189;DHT22;9219;50.396;8.546;2023-01-04T00:07:57;7.00;99.90
18189;DHT22;9219;50.396;8.546;2023-01-04T00:15:33;7.00;99.90
18189;DHT22;9219;50.396;8.546;2023-01-04T00:18:01;6.90;99.90
18189;DHT22;9219;50.396;8.546;2023-01-04T00:20:29;7.20;99.90
18189;DHT22;9219;50.396;8.546;2023-01-04T00:22:57;7.30;99.90
18189;DHT22;9219;50.396;8.546;2023-01-04T00:25:27;7.10;99.90
18189;DHT22;9219;50.396;8.546;2023-01-04T00:27:54;7.30;99.90
18189;DHT22;9219;50.396;8.546;2023-01-04T00:30:23;7.20;99.90
18189;DHT22;9219;50.396;8.546;2023-01-04T00:36:08;7.30;99.90
18189;DHT22;9219;50.396;8.546;2023-01-04T00:38:36;7.20;99.90
18189;DHT22;9219;50.396;8.546;2023-01-04T00:41:05;7.30;99.90
18189;DHT22;9219;50.396;8.546;2023-01-04T00:43:49;7.10;99.90
18189;DHT22;9219;50.396;8.546;2023-01-04T00:46:17;6.90;99.90
18189;DHT22;9219;50.396;8.546;2023-01-04T00:48:45;6.90;99.90
18189;DHT22;9219;50.396;8.546;2023-01-04T00:51:16;7.10;99.90
18189;DHT22;9219;50.396;8.546;2023-01-04T00:58:54;7.00;99.90
18189;DHT22;9219;50.396;8.546;2023-01-04T01:01:23;7.10;99.90
18189;DHT22;9219;50.396;8.546;2023-01-04T01:03:53;7.10;99.90
18189;DHT22;9219;50.396;8.546;2023-01-04T01:06:30;7.10;99.90
18189;DHT22;9219;50.396;8.546;2023-01-04T01:09:05;7.20;99.90
18189;DHT22;9219;50.396;8.546;2023-01-04T01:11:34;7.30;99.90
18189;DHT22;9219;50.396;8.546;2023-01-04T01:14:06;7.20;99.90
18189;DHT22;9219;50.396;8.546;2023-01-04T01:21:40;7.30;99.90
18189;DHT22;9219;50.396;8.546;2023-01-04T01:24:11;7.20;99.90
18189;DHT22;9219;50.396;8.546;2023-01-04T01:26:45;7.20;99.90
18189;DHT22;9219;50.396;8.546;2023-01-04T01:29:13;7.20;99.90
18189;DHT22;9219;50.396;8.546;2023-01-04T01:31:41;7.10;99.90
18189;DHT22;9219;50.396;8.546;2023-01-04T01:34:10;7.20;99.90
18189;DHT22;9219;50.396;8.546;2023-01-04T01:37:01;7.50;99.90
18189;DHT22;9219;50.396;8.546;2023-01-04T01:39:31;7.40;99.90
18189;DHT22;9219;50.396;8.546;2023-01-04T01:47:22;7.20;99.90
18189;DHT22;9219;50.396;8.546;2023-01-04T01:49:53;7.30;99.90
18189;DHT22;9219;50.396;8.546;2023-01-04T01:52:25;7.30;99.90
18189;DHT22;9219;50.396;8.546;2023-01-04T01:54:56;7.30;99.90
18189;DHT22;9219;50.396;8.546;2023-01-04T01:57:29;7.40;99.90
18189;DHT22;9219;50.396;8.546;2023-01-04T02:00:12;7.10;99.90
18189;DHT22;9219;50.396;8.546;2023-01-04T02:02:54;7.00;99.90
18189;DHT22;9219;50.396;8.546;2023-01-04T02:05:41;7.30;99.90
18189;DHT22;9219;50.396;8.546;2023-01-04T02:13:27;7.50;99.90
18189;DHT22;9219;50.396;8.546;2023-01-04T02:16:32;7.40;99.90
18189;DHT22;9219;50.396;8.546;2023-01-04T02:22:45;7.00;99.90
18189;DHT22;9219;50.396;8.546;2023-01-04T02:25:29;6.90;99.90
18189;DHT22;9219;50.396;8.546;2023-01-04T02:28:08;7.00;99.90
18189;DHT22;9219;50.396;8.546;2023-01-04T02:31:06;6.80;99.90
18189;DHT22;9219;50.396;8.546;2023-01-04T02:34:04;6.80;99.90
18189;DHT22;9219;50.396;8.546;2023-01-04T02:36:51;6.90;99.90
18189;DHT22;9219;50.396;8.546;2023-01-04T02:39:32;6.80;99.90
18189;DHT22;9219;50.396;8.546;2023-01-04T02:42:11;7.00;99.90
18189;DHT22;9219;50.396;8.546;2023-01-04T02:44:44;7.30;99.90
18189;DHT22;9219;50.396;8.546;2023-01-04T02:47:23;6.90;99.90
18189;DHT22;9219;50.396;8.546;2023-01-04T02:50:23;7.10;99.90
18189;DHT22;9219;50.396;8.546;2023-01-04T02:58:31;6.80;99.90
18189;DHT22;9219;50.396;8.546;2023-01-04T03:01:08;6.80;99.90
18189;DHT22;9219;50.396;8.546;2023-01-04T03:04:02;6.70;99.90
18189;DHT22;9219;50.396;8.546;2023-01-04T03:06:57;6.50;99.90
18189;DHT22;9219;50.396;8.546;2023-01-04T03:09:27;6.60;99.90
18189;DHT22;9219;50.396;8.546;2023-01-04T03:12:03;6.70;99.90
18189;DHT22;9219;50.396;8.546;2023-01-04T03:14:52;6.80;99.90
18189;DHT22;9219;50.396;8.546;2023-01-04T03:22:47;6.60;99.90
18189;DHT22;9219;50.396;8.546;2023-01-04T03:25:40;6.70;99.90
18189;DHT22;9219;50.396;8.546;2023-01-04T03:28:31;6.60;99.90
18189;DHT22;9219;50.396;8.546;2023-01-04T03:31:27;6.70;99.90
18189;DHT22;9219;50.396;8.546;2023-01-04T03:34:14;7.00;99.90
18189;DHT22;9219;50.396;8.546;2023-01-04T03:37:06;7.20;99.90
18189;DHT22;9219;50.396;8.546;2023-01-04T03:39:49;6.90;99.90
18189;DHT22;9219;50.396;8.546;2023-01-04T03:43:02;6.90;99.90
18189;DHT22;9219;50.396;8.546;2023-01-04T03:45:52;6.70;99.90
18189;DHT22;9219;50.396;8.546;2023-01-04T03:48:43;6.90;99.90
18189;DHT22;9219;50.396;8.546;2023-01-04T03:51:17;6.80;99.90
18189;DHT22;9219;50.396;8.546;2023-01-04T03:53:52;6.70;99.90
18189;DHT22;9219;50.396;8.546;2023-01-04T03:56:23;6.50;99.90
18189;DHT22;9219;50.396;8.546;2023-01-04T03:58:52;6.70;99.90
18189;DHT22;9219;50.396;8.546;2023-01-04T04:01:23;6.80;99.90
18189;DHT22;9219;50.396;8.546;2023-01-04T04:08:58;6.70;99.90
18189;DHT22;9219;50.396;8.546;2023-01-04T04:11:25;6.80;99.90
18189;DHT22;9219;50.396;8.546;2023-01-04T04:13:59;6.70;99.90
18189;DHT22;9219;50.396;8.546;2023-01-04T04:16:28;6.50;99.90
18189;DHT22;9219;50.396;8.546;2023-01-04T04:18:57;6.70;99.90
18189;DHT22;9219;50.396;8.546;2023-01-04T04:21:34;6.70;99.90
18189;DHT22;9219;50.396;8.546;2023-01-04T04:24:03;6.70;99.90
18189;DHT22;9219;50.396;8.546;2023-01-04T04:26:32;6.80;99.90
18189;DHT22;9219;50.396;8.546;2023-01-04T04:34:08;6.80;99.90
18189;DHT22;9219;50.396;8.546;2023-01-04T04:36:36;6.70;99.90
18189;DHT22;9219;50.396;8.546;2023-01-04T04:39:04;6.70;99.90
18189;DHT22;9219;50.396;8.546;2023-01-04T04:41:32;6.70;99.90
18189;DHT22;9219;50.396;8.546;2023-01-04T04:44:05;6.70;99.90
18189;DHT22;9219;50.396;8.546;2023-01-04T04:46:32;6.60;99.90
18189;DHT22;9219;50.396;8.546;2023-01-04T04:49:00;6.70;99.90
18189;DHT22;9219;50.396;8.546;2023-01-04T04:54:20;6.70;99.90
18189;DHT22;9219;50.396;8.546;2023-01-04T04:57:03;6.80;99.90
18189;DHT22;9219;50.396;8.546;2023-01-04T04:59:32;6.70;99.90
18189;DHT22;9219;50.396;8.546;2023-01-04T05:02:02;6.70;99.90
18189;DHT22;9219;50.396;8.546;2023-01-04T05:04:29;6.90;99.90
18189;DHT22;9219;50.396;8.546;2023-01-04T05:06:58;6.90;99.90
18189;DHT22;9219;50.396;8.546;2023-01-04T05:09:27;6.90;99.90
18189;DHT22;9219;50.396;8.546;2023-01-04T05:15:16;6.70;99.90
18189;DHT22;9219;50.396;8.546;2023-01-04T05:17:44;6.60;99.90
18189;DHT22;9219;50.396;8.546;2023-01-04T05:20:13;6.70;99.90
18189;DHT22;9219;50.396;8.546;2023-01-04T05:22:44;6.90;99.90
18189;DHT22;9219;50.396;8.546;2023-01-04T05:25:14;6.90;99.90
18189;DHT22;9219;50.396;8.546;2023-01-04T05:27:44;6.90;99.90
18189;DHT22;9219;50.396;8.546;2023-01-04T05:30:19;6.80;99.90
18189;DHT22;9219;50.396;8.546;2023-01-04T05:40:31;6.60;99.90
18189;DHT22;9219;50.396;8.546;2023-01-04T05:42:58;6.60;99.90
18189;DHT22;9219;50.396;8.546;2023-01-04T05:45:26;6.60;99.90
18189;DHT22;9219;50.396;8.546;2023-01-04T05:47:58;6.90;99.90
18189;DHT22;9219;50.396;8.546;2023-01-04T05:50:26;6.80;99.90
18189;DHT22;9219;50.396;8.546;2023-01-04T05:52:54;6.60;99.90
18189;DHT22;9219;50.396;8.546;2023-01-04T05:55:21;6.70;99.90
18189;DHT22;9219;50.396;8.546;2023-01-04T05:57:50;6.60;99.90
18189;DHT22;9219;50.396;8.546;2023-01-04T06:05:04;6.60;99.90
18189;DHT22;9219;50.396;8.546;2023-01-04T06:07:32;6.90;99.90
18189;DHT22;9219;50.396;8.546;2023-01-04T06:10:01;6.70;99.90
18189;DHT22;9219;50.396;8.546;2023-01-04T06:12:29;6.60;99.90
18189;DHT22;9219;50.396;8.546;2023-01-04T06:14:56;6.80;99.90
18189;DHT22;9219;50.396;8.546;2023-01-04T06:17:26;7.10;99.90
18189;DHT22;9219;50.396;8.546;2023-01-04T06:19:55;7.00;99.90
18189;DHT22;9219;50.396;8.546;2023-01-04T06:27:34;6.90;99.90
18189;DHT22;9219;50.396;8.546;2023-01-04T06:30:05;6.70;99.90
18189;DHT22;9219;50.396;8.546;2023-01-04T06:32:35;6.50;99.90
18189;DHT22;9219;50.396;8.546;2023-01-04T06:35:06;6.80;99.90
18189;DHT22;9219;50.396;8.546;2023-01-04T06:37:33;6.80;99.90
18189;DHT22;9219;50.396;8.546;2023-01-04T06:40:05;6.60;99.90
18189;DHT22;9219;50.396;8.546;2023-01-04T06:42:37;6.70;99.90
18189;DHT22;9219;50.396;8.546;2023-01-04T06:45:19;6.70;99.90
18189;DHT22;9219;50.396;8.546;2023-01-04T06:52:52;6.50;99.90
18189;DHT22;9219;50.396;8.546;2023-01-04T06:55:21;6.70;99.90
18189;DHT22;9219;50.396;8.546;2023-01-04T06:57:49;6.80;99.90
18189;DHT22;9219;50.396;8.546;2023-01-04T07:00:25;6.70;99.90
18189;DHT22;9219;50.396;8.546;2023-01-04T07:02:52;6.60;99.90
18189;DHT22;9219;50.396;8.546;2023-01-04T07:05:43;6.60;99.90
18189;DHT22;9219;50.396;8.546;2023-01-04T07:08:18;6.50;99.90
18189;DHT22;9219;50.396;8.546;2023-01-04T07:10:47;6.40;99.90
18189;DHT22;9219;50.396;8.546;2023-01-04T07:18:22;6.50;99.90
18189;DHT22;9219;50.396;8.546;2023-01-04T07:20:50;6.50;99.90
18189;DHT22;9219;50.396;8.546;2023-01-04T07:23:18;6.50;99.90
18189;DHT22;9219;50.396;8.546;2023-01-04T07:25:46;6.50;99.90
18189;DHT22;9219;50.396;8.546;2023-01-04T07:28:16;6.50;99.90
18189;DHT22;9219;50.396;8.546;2023-01-04T07:31:07;6.50;99.90
18189;DHT22;9219;50.396;8.546;2023-01-04T07:33:39;6.80;99.90
18189;DHT22;9219;50.396;8.546;2023-01-04T07:41:14;6.70;99.90
18189;DHT22;9219;50.396;8.546;2023-01-04T07:43:47;6.70;99.90
18189;DHT22;9219;50.396;8.546;2023-01-04T07:46:34;6.90;99.90
18189;DHT22;9219;50.396;8.546;2023-01-04T07:49:02;6.80;99.90
18189;DHT22;9219;50.396;8.546;2023-01-04T07:51:32;6.90;99.90
18189;DHT22;9219;50.396;8.546;2023-01-04T07:54:03;6.80;99.90
18189;DHT22;9219;50.396;8.546;2023-01-04T07:56:34;6.70;99.90
18189;DHT22;9219;50.396;8.546;2023-01-04T07:59:07;6.90;99.90
18189;DHT22;9219;50.396;8.546;2023-01-04T08:01:54;7.20;99.90
18189;DHT22;9219;50.396;8.546;2023-01-04T08:12:10;7.10;99.90
18189;DHT22;9219;50.396;8.546;2023-01-04T08:14:38;6.90;99.90
18189;DHT22;9219;50.396;8.546;2023-01-04T08:17:09;6.90;99.90
18189;DHT22;9219;50.396;8.546;2023-01-04T08:19:41;6.80;99.90
18189;DHT22;9219;50.396;8.546;2023-01-04T08:22:12;6.70;99.90
18189;DHT22;9219;50.396;8.546;2023-01-04T08:24:41;6.80;99.90
18189;DHT22;9219;50.396;8.546;2023-01-04T08:27:08;6.70;99.90
18189;DHT22;9219;50.396;8.546;2023-01-04T08:29:40;6.90;99.90
18189;DHT22;9219;50.396;8.546;2023-01-04T08:37:19;7.20;99.90
18189;DHT22;9219;50.396;8.546;2023-01-04T08:39:50;7.30;99.90
18189;DHT22;9219;50.396;8.546;2023-01-04T08:42:18;7.30;99.90
18189;DHT22;9219;50.396;8.546;2023-01-04T08:44:57;7.30;99.90
18189;DHT22;9219;50.396;8.546;2023-01-04T08:47:27;7.40;99.90
18189;DHT22;9219;50.396;8.546;2023-01-04T08:49:55;7.40;99.90
18189;DHT22;9219;50.396;8.546;2023-01-04T08:52:24;7.50;99.90
18189;DHT22;9219;50.396;8.546;2023-01-04T08:59:09;7.50;99.90
18189;DHT22;9219;50.396;8.546;2023-01-04T09:01:39;7.50;99.90
18189;DHT22;9219;50.396;8.546;2023-01-04T09:04:09;7.50;99.90
18189;DHT22;9219;50.396;8.546;2023-01-04T09:06:37;7.40;99.90
18189;DHT22;9219;50.396;8.546;2023-01-04T09:09:05;7.40;99.90
18189;DHT22;9219;50.396;8.546;2023-01-04T09:11:33;7.40;99.90
18189;DHT22;9219;50.396;8.546;2023-01-04T09:14:01;7.50;99.90
18189;DHT22;9219;50.396;8.546;2023-01-04T09:16:35;7.50;99.90
18189;DHT22;9219;50.396;8.546;2023-01-04T09:19:35;7.60;99.90
18189;DHT22;9219;50.396;8.546;2023-01-04T09:22:02;7.70;99.90
18189;DHT22;9219;50.396;8.546;2023-01-04T09:24:31;7.90;99.90
18189;DHT22;9219;50.396;8.546;2023-01-04T09:27:00;8.00;99.90
18189;DHT22;9219;50.396;8.546;2023-01-04T09:29:30;7.80;99.90
18189;DHT22;9219;50.396;8.546;2023-01-04T09:31:58;7.80;99.90
18189;DHT22;9219;50.396;8.546;2023-01-04T09:34:26;7.50;99.90
18189;DHT22;9219;50.396;8.546;2023-01-04T09:36:55;7.60;99.90
18189;DHT22;9219;50.396;8.546;2023-01-04T09:39:36;7.80;99.90
18189;DHT22;9219;50.396;8.546;2023-01-04T09:42:15;7.80;99.90
18189;DHT22;9219;50.396;8.546;2023-01-04T09:44:46;7.80;99.90
18189;DHT22;9219;50.396;8.546;2023-01-04T09:47:42;7.80;99.90
18189;DHT22;9219;50.396;8.546;2023-01-04T09:50:14;7.90;99.90
18189;DHT22;9219;50.396;8.546;2023-01-04T09:52:53;7.90;99.90
18189;DHT22;9219;50.396;8.546;2023-01-04T09:55:26;7.90;99.90
18189;DHT22;9219;50.396;8.546;2023-01-04T10:01:02;8.10;99.90
18189;DHT22;9219;50.396;8.546;2023-01-04T10:03:33;8.20;99.90
18189;DHT22;9219;50.396;8.546;2023-01-04T10:06:05;8.20;99.90
18189;DHT22;9219;50.396;8.546;2023-01-04T10:08:36;8.20;99.90
18189;DHT22;9219;50.396;8.546;2023-01-04T10:11:18;8.30;99.90
18189;DHT22;9219;50.396;8.546;2023-01-04T10:14:04;8.10;99.90
18189;DHT22;9219;50.396;8.546;2023-01-04T10:16:47;8.00;99.90
18189;DHT22;9219;50.396;8.546;2023-01-04T10:19:53;8.30;99.90
18189;DHT22;9219;50.396;8.546;2023-01-04T10:22:54;8.30;99.90
18189;DHT22;9219;50.396;8.546;2023-01-04T10:25:53;8.20;99.90
18189;DHT22;9219;50.396;8.546;2023-01-04T10:28:35;8.00;99.90
18189;DHT22;9219;50.396;8.546;2023-01-04T10:31:10;8.10;99.90
18189;DHT22;9219;50.396;8.546;2023-01-04T10:34:15;8.30;99.90
18189;DHT22;9219;50.396;8.546;2023-01-04T10:36:47;8.40;99.90
18189;DHT22;9219;50.396;8.546;2023-01-04T10:39:21;8.20;99.90
18189;DHT22;9219;50.396;8.546;2023-01-04T10:45:01;8.00;99.90
18189;DHT22;9219;50.396;8.546;2023-01-04T10:47:38;8.30;99.90
18189;DHT22;9219;50.396;8.546;2023-01-04T10:50:16;8.50;99.90
18189;DHT22;9219;50.396;8.546;2023-01-04T10:52:51;8.60;99.90
18189;DHT22;9219;50.396;8.546;2023-01-04T10:55:24;8.50;99.90
18189;DHT22;9219;50.396;8.546;2023-01-04T10:57:57;8.40;99.90
18189;DHT22;9219;50.396;8.546;2023-01-04T11:00:36;8.60;99.90
18189;DHT22;9219;50.396;8.546;2023-01-04T11:08:16;8.50;99.90
18189;DHT22;9219;50.396;8.546;2023-01-04T11:10:49;8.50;99.90
18189;DHT22;9219;50.396;8.546;2023-01-04T11:13:18;8.50;99.90
18189;DHT22;9219;50.396;8.546;2023-01-04T11:15:48;8.40;99.90
18189;DHT22;9219;50.396;8.546;2023-01-04T11:18:16;8.70;99.90
18189;DHT22;9219;50.396;8.546;2023-01-04T11:20:44;8.80;99.90
18189;DHT22;9219;50.396;8.546;2023-01-04T11:23:17;8.60;99.90
18189;DHT22;9219;50.396;8.546;2023-01-04T11:31:00;8.70;99.90
18189;DHT22;9219;50.396;8.546;2023-01-04T11:33:51;8.70;99.90
18189;DHT22;9219;50.396;8.546;2023-01-04T11:36:33;8.80;99.90
18189;DHT22;9219;50.396;8.546;2023-01-04T11:39:03;9.00;99.90
18189;DHT22;9219;50.396;8.546;2023-01-04T11:41:33;9.10;99.90
18189;DHT22;9219;50.396;8.546;2023-01-04T11:44:02;8.90;99.90
18189;DHT22;9219;50.396;8.546;2023-01-04T11:46:34;8.70;99.90
18189;DHT22;9219;50.396;8.546;2023-01-04T11:49:03;9.10;99.90
18189;DHT22;9219;50.396;8.546;2023-01-04T11:55:36;8.90;99.90
18189;DHT22;9219;50.396;8.546;2023-01-04T11:58:07;9.00;99.90
18189;DHT22;9219;50.396;8.546;2023-01-04T12:00:36;9.10;99.90
18189;DHT22;9219;50.396;8.546;2023-01-04T12:03:10;9.20;99.90
18189;DHT22;9219;50.396;8.546;2023-01-04T12:05:40;9.10;99.90
18189;DHT22;9219;50.396;8.546;2023-01-04T12:08:25;8.90;99.90
18189;DHT22;9219;50.396;8.546;2023-01-04T12:10:55;8.90;99.90
18189;DHT22;9219;50.396;8.546;2023-01-04T12:18:34;9.20;99.90
18189;DHT22;9219;50.396;8.546;2023-01-04T12:21:04;9.20;99.90
18189;DHT22;9219;50.396;8.546;2023-01-04T12:23:43;9.30;99.90
18189;DHT22;9219;50.396;8.546;2023-01-04T12:26:11;9.30;99.90
18189;DHT22;9219;50.396;8.546;2023-01-04T12:28:42;9.30;99.90
18189;DHT22;9219;50.396;8.546;2023-01-04T12:31:32;9.00;99.90
18189;DHT22;9219;50.396;8.546;2023-01-04T12:37:44;9.10;99.90
18189;DHT22;9219;50.396;8.546;2023-01-04T12:46:33;9.20;99.90
18189;DHT22;9219;50.396;8.546;2023-01-04T12:49:50;9.10;99.90
18189;DHT22;9219;50.396;8.546;2023-01-04T12:52:41;9.10;99.90
18189;DHT22;9219;50.396;8.546;2023-01-04T12:55:57;9.00;99.90
18189;DHT22;9219;50.396;8.546;2023-01-04T12:58:41;9.30;99.90
18189;DHT22;9219;50.396;8.546;2023-01-04T13:01:29;9.50;99.90
18189;DHT22;9219;50.396;8.546;2023-01-04T13:03:59;9.50;99.90
18189;DHT22;9219;50.396;8.546;2023-01-04T13:06:59;9.60;99.90
18189;DHT22;9219;50.396;8.546;2023-01-04T13:09:44;9.70;99.90
18189;DHT22;9219;50.396;8.546;2023-01-04T13:15:20;9.70;99.90
18189;DHT22;9219;50.396;8.546;2023-01-04T13:17:52;9.50;99.90
18189;DHT22;9219;50.396;8.546;2023-01-04T13:20:23;9.50;99.90
18189;DHT22;9219;50.396;8.546;2023-01-04T13:22:56;9.40;99.90
18189;DHT22;9219;50.396;8.546;2023-01-04T13:25:29;9.50;99.90
18189;DHT22;9219;50.396;8.546;2023-01-04T13:31:01;9.30;99.90
18189;DHT22;9219;50.396;8.546;2023-01-04T13:33:39;9.50;99.90
18189;DHT22;9219;50.396;8.546;2023-01-04T13:36:11;9.70;99.90
18189;DHT22;9219;50.396;8.546;2023-01-04T13:38:41;9.50;99.90
18189;DHT22;9219;50.396;8.546;2023-01-04T13:41:19;9.50;99.90
18189;DHT22;9219;50.396;8.546;2023-01-04T13:43:56;9.50;99.90
18189;DHT22;9219;50.396;8.546;2023-01-04T13:46:32;9.40;99.90
18189;DHT22;9219;50.396;8.546;2023-01-04T13:49:14;9.50;99.90
18189;DHT22;9219;50.396;8.546;2023-01-04T13:57:07;9.90;99.90
18189;DHT22;9219;50.396;8.546;2023-01-04T13:59:38;9.80;99.90
18189;DHT22;9219;50.396;8.546;2023-01-04T14:02:15;9.80;99.90
18189;DHT22;9219;50.396;8.546;2023-01-04T14:04:45;9.80;99.90
18189;DHT22;9219;50.396;8.546;2023-01-04T14:07:19;9.90;99.90
18189;DHT22;9219;50.396;8.546;2023-01-04T14:09:51;10.10;99.90
18189;DHT22;9219;50.396;8.546;2023-01-04T14:12:24;10.20;99.90
18189;DHT22;9219;50.396;8.546;2023-01-04T14:14:54;10.20;99.90
18189;DHT22;9219;50.396;8.546;2023-01-04T14:20:33;10.20;99.90
18189;DHT22;9219;50.396;8.546;2023-01-04T14:23:18;10.40;99.90
18189;DHT22;9219;50.396;8.546;2023-01-04T14:25:50;10.40;99.90
18189;DHT22;9219;50.396;8.546;2023-01-04T14:28:39;10.50;99.90
18189;DHT22;9219;50.396;8.546;2023-01-04T14:31:36;10.60;99.90
18189;DHT22;9219;50.396;8.546;2023-01-04T14:34:11;10.60;99.90
18189;DHT22;9219;50.396;8.546;2023-01-04T14:36:45;10.60;99.90
18189;DHT22;9219;50.396;8.546;2023-01-04T14:42:30;10.40;99.90
18189;DHT22;9219;50.396;8.546;2023-01-04T14:45:04;10.40;99.90
18189;DHT22;9219;50.396;8.546;2023-01-04T14:47:36;10.50;99.90
18189;DHT22;9219;50.396;8.546;2023-01-04T14:50:06;10.60;99.90
18189;DHT22;9219;50.396;8.546;2023-01-04T14:52:48;10.70;99.90
18189;DHT22;9219;50.396;8.546;2023-01-04T14:55:24;10.50;99.90
18189;DHT22;9219;50.396;8.546;2023-01-04T14:57:53;10.40;99.90
18189;DHT22;9219;50.396;8.546;2023-01-04T15:05:29;10.60;99.90
18189;DHT22;9219;50.396;8.546;2023-01-04T15:08:04;10.50;99.90
18189;DHT22;9219;50.396;8.546;2023-01-04T15:10:33;10.60;99.90
18189;DHT22;9219;50.396;8.546;2023-01-04T15:15:52;10.80;99.90
18189;DHT22;9219;50.396;8.546;2023-01-04T15:18:20;11.10;99.90
18189;DHT22;9219;50.396;8.546;2023-01-04T15:20:49;10.70;99.90
18189;DHT22;9219;50.396;8.546;2023-01-04T15:26:50;10.70;99.90
18189;DHT22;9219;50.396;8.546;2023-01-04T15:29:22;10.60;99.90
18189;DHT22;9219;50.396;8.546;2023-01-04T15:31:51;10.60;99.90
18189;DHT22;9219;50.396;8.546;2023-01-04T15:34:23;10.60;99.90
18189;DHT22;9219;50.396;8.546;2023-01-04T15:36:52;10.50;99.90
18189;DHT22;9219;50.396;8.546;2023-01-04T15:39:19;10.60;99.90
18189;DHT22;9219;50.396;8.546;2023-01-04T15:41:49;10.80;99.90
18189;DHT22;9219;50.396;8.546;2023-01-04T15:47:36;11.00;99.90
18189;DHT22;9219;50.396;8.546;2023-01-04T15:50:08;10.70;99.90
18189;DHT22;9219;50.396;8.546;2023-01-04T15:52:41;10.70;99.90
18189;DHT22;9219;50.396;8.546;2023-01-04T15:55:13;10.60;99.90
18189;DHT22;9219;50.396;8.546;2023-01-04T15:57:42;10.70;99.90
18189;DHT22;9219;50.396;8.546;2023-01-04T16:00:12;10.90;99.90
18189;DHT22;9219;50.396;8.546;2023-01-04T16:02:42;10.70;99.90
18189;DHT22;9219;50.396;8.546;2023-01-04T16:05:12;10.80;99.90
18189;DHT22;9219;50.396;8.546;2023-01-04T16:18:28;10.90;99.90
18189;DHT22;9219;50.396;8.546;2023-01-04T16:20:59;10.70;99.90
18189;DHT22;9219;50.396;8.546;2023-01-04T16:23:27;10.80;99.90
18189;DHT22;9219;50.396;8.546;2023-01-04T16:26:05;10.90;99.90
18189;DHT22;9219;50.396;8.546;2023-01-04T16:28:37;10.90;99.90
18189;DHT22;9219;50.396;8.546;2023-01-04T16:31:08;11.00;99.90
18189;DHT22;9219;50.396;8.546;2023-01-04T16:33:38;10.80;99.90
18189;DHT22;9219;50.396;8.546;2023-01-04T16:36:11;10.70;99.90
18189;DHT22;9219;50.396;8.546;2023-01-04T16:52:16;11.00;99.90
18189;DHT22;9219;50.396;8.546;2023-01-04T16:54:49;11.10;99.90
18189;DHT22;9219;50.396;8.546;2023-01-04T16:57:17;11.00;99.90
18189;DHT22;9219;50.396;8.546;2023-01-04T16:59:46;11.00;99.90
18189;DHT22;9219;50.396;8.546;2023-01-04T17:02:16;10.90;99.90
18189;DHT22;9219;50.396;8.546;2023-01-04T17:04:47;11.00;99.90
18189;DHT22;9219;50.396;8.546;2023-01-04T17:07:25;11.40;99.90
18189;DHT22;9219;50.396;8.546;2023-01-04T17:10:00;11.10;99.90
18189;DHT22;9219;50.396;8.546;2023-01-04T17:17:41;11.00;99.90
18189;DHT22;9219;50.396;8.546;2023-01-04T17:20:11;11.00;99.90
18189;DHT22;9219;50.396;8.546;2023-01-04T17:22:39;11.00;99.90
18189;DHT22;9219;50.396;8.546;2023-01-04T17:25:10;11.00;99.90
18189;DHT22;9219;50.396;8.546;2023-01-04T17:27:40;11.10;99.90
18189;DHT22;9219;50.396;8.546;2023-01-04T17:30:11;10.90;99.90
18189;DHT22;9219;50.396;8.546;2023-01-04T17:32:41;10.80;99.90
18189;DHT22;9219;50.396;8.546;2023-01-04T17:40:21;11.10;99.90
18189;DHT22;9219;50.396;8.546;2023-01-04T17:42:53;11.10;99.90
18189;DHT22;9219;50.396;8.546;2023-01-04T17:45:32;11.20;99.90
18189;DHT22;9219;50.396;8.546;2023-01-04T17:48:40;11.40;99.90
18189;DHT22;9219;50.396;8.546;2023-01-04T17:51:35;11.40;99.90
18189;DHT22;9219;50.396;8.546;2023-01-04T17:54:08;11.30;99.90
18189;DHT22;9219;50.396;8.546;2023-01-04T18:00:29;11.20;99.90
18189;DHT22;9219;50.396;8.546;2023-01-04T18:03:08;11.20;99.90
18189;DHT22;9219;50.396;8.546;2023-01-04T18:05:38;11.50;99.90
18189;DHT22;9219;50.396;8.546;2023-01-04T18:13:23;11.30;99.90
18189;DHT22;9219;50.396;8.546;2023-01-04T18:15:51;11.00;99.90
18189;DHT22;9219;50.396;8.546;2023-01-04T18:18:44;11.00;99.90
18189;DHT22;9219;50.396;8.546;2023-01-04T18:21:14;10.90;99.90
18189;DHT22;9219;50.396;8.546;2023-01-04T18:23:56;11.10;99.90
18189;DHT22;9219;50.396;8.546;2023-01-04T18:26:44;11.30;99.90
18189;DHT22;9219;50.396;8.546;2023-01-04T18:29:33;11.50;99.90
18189;DHT22;9219;50.396;8.546;2023-01-04T18:32:04;11.30;99.90
18189;DHT22;9219;50.396;8.546;2023-01-04T18:39:23;11.20;99.90
18189;DHT22;9219;50.396;8.546;2023-01-04T18:41:56;11.00;99.90
18189;DHT22;9219;50.396;8.546;2023-01-04T18:44:42;11.00;99.90
18189;DHT22;9219;50.396;8.546;2023-01-04T18:47:17;11.10;99.90
18189;DHT22;9219;50.396;8.546;2023-01-04T18:49:54;11.10;99.90
18189;DHT22;9219;50.396;8.546;2023-01-04T18:52:23;11.20;99.90
18189;DHT22;9219;50.396;8.546;2023-01-04T18:54:54;11.50;99.90
18189;DHT22;9219;50.396;8.546;2023-01-04T18:57:31;11.60;99.90
18189;DHT22;9219;50.396;8.546;2023-01-04T19:04:19;10.90;99.90
18189;DHT22;9219;50.396;8.546;2023-01-04T19:06:47;11.20;99.90
18189;DHT22;9219;50.396;8.546;2023-01-04T19:09:15;11.10;99.90
18189;DHT22;9219;50.396;8.546;2023-01-04T19:11:49;11.00;99.90
18189;DHT22;9219;50.396;8.546;2023-01-04T19:14:22;10.90;99.90
18189;DHT22;9219;50.396;8.546;2023-01-04T19:16:53;11.20;99.90
18189;DHT22;9219;50.396;8.546;2023-01-04T19:19:27;11.30;99.90
18189;DHT22;9219;50.396;8.546;2023-01-04T19:27:19;11.30;99.90
18189;DHT22;9219;50.396;8.546;2023-01-04T19:29:48;11.30;99.90
18189;DHT22;9219;50.396;8.546;2023-01-04T19:32:18;11.20;99.90
18189;DHT22;9219;50.396;8.546;2023-01-04T19:34:48;11.20;99.90
18189;DHT22;9219;50.396;8.546;2023-01-04T19:37:25;11.10;99.90
18189;DHT22;9219;50.396;8.546;2023-01-04T19:40:08;11.00;99.90
18189;DHT22;9219;50.396;8.546;2023-01-04T19:42:40;10.80;99.90
18189;DHT22;9219;50.396;8.546;2023-01-04T19:45:13;10.90;99.90
18189;DHT22;9219;50.396;8.546;2023-01-04T19:52:50;10.90;99.90
18189;DHT22;9219;50.396;8.546;2023-01-04T19:55:24;10.60;99.90
18189;DHT22;9219;50.396;8.546;2023-01-04T19:57:56;10.60;99.90
18189;DHT22;9219;50.396;8.546;2023-01-04T20:00:31;10.60;99.90
18189;DHT22;9219;50.396;8.546;2023-01-04T20:03:21;10.50;99.90
18189;DHT22;9219;50.396;8.546;2023-01-04T20:05:52;10.70;99.90
18189;DHT22;9219;50.396;8.546;2023-01-04T20:08:22;10.70;99.90
18189;DHT22;9219;50.396;8.546;2023-01-04T20:13:44;10.80;99.90
18189;DHT22;9219;50.396;8.546;2023-01-04T20:16:14;10.70;99.90
18189;DHT22;9219;50.396;8.546;2023-01-04T20:18:46;10.50;99.90
18189;DHT22;9219;50.396;8.546;2023-01-04T20:21:25;10.40;99.90
18189;DHT22;9219;50.396;8.546;2023-01-04T20:23:54;10.50;99.90
18189;DHT22;9219;50.396;8.546;2023-01-04T20:26:25;10.50;99.90
18189;DHT22;9219;50.396;8.546;2023-01-04T20:28:57;10.50;99.90
18189;DHT22;9219;50.396;8.546;2023-01-04T20:36:40;10.50;99.90
18189;DHT22;9219;50.396;8.546;2023-01-04T20:39:15;10.60;99.90
18189;DHT22;9219;50.396;8.546;2023-01-04T20:41:52;10.60;99.90
18189;DHT22;9219;50.396;8.546;2023-01-04T20:44:39;10.70;99.90
18189;DHT22;9219;50.396;8.546;2023-01-04T20:47:10;10.60;99.90
18189;DHT22;9219;50.396;8.546;2023-01-04T20:49:46;10.50;99.90
18189;DHT22;9219;50.396;8.546;2023-01-04T20:52:23;10.60;99.90